Time;durP1;ratioP1;P1;durP2;ratioP2;P2;SDS_P1;SDS_P2;PMS_P1;PMS_P2;Temp;Humidity;BMP_temperature;BMP_pressure;BME280_temperature;BME280_humidity;BME280_pressure;Samples;Min_cycle;Max_cycle;Signal;HPM_P1;HPM_P2
2023/01/17 00:01:26;;;;;;;3.90;1.45;;;2.80;99.90;;;;;;4942583;28;20071;-66
2023/01/17 00:12:08;;;;;;;4.10;1.70;;;2.90;99.90;;;;;;4974820;28;20510;-65
2023/01/17 00:14:35;;;;;;;3.67;2.30;;;2.90;99.90;;;;;;4977417;28;20058;-66
2023/01/17 00:17:01;;;;;;;8.65;4.72;;;3.00;99.90;;;;;;4960088;28;20058;-65
2023/01/17 01:34:16;;;;;;;6.53;2.40;;;3.10;99.90;;;;;;4971147;28;20062;-65
2023/01/17 01:36:43;;;;;;;5.40;2.47;;;3.10;99.90;;;;;;4971491;28;20138;-64
2023/01/17 01:39:11;;;;;;;3.42;1.35;;;3.00;99.90;;;;;;4971176;28;20424;-64
2023/01/17 01:41:38;;;;;;;4.18;1.98;;;3.00;99.90;;;;;;4970946;28;20077;-65
2023/01/17 01:44:25;;;;;;;5.20;2.90;;;3.00;99.90;;;;;;4971091;28;20050;-65
2023/01/17 01:46:52;;;;;;;7.28;3.67;;;3.00;99.90;;;;;;4973828;28;20061;-65
2023/01/17 01:49:23;;;;;;;8.70;2.78;;;3.00;99.90;;;;;;4971044;28;20046;-65
2023/01/17 01:51:54;;;;;;;7.63;2.10;;;3.10;99.90;;;;;;4970739;28;20078;-64
2023/01/17 01:54:26;;;;;;;6.75;2.03;;;3.00;99.90;;;;;;4971254;28;20106;-64
2023/01/17 01:56:57;;;;;;;6.70;2.03;;;3.10;99.90;;;;;;4973106;28;20509;-66
2023/01/17 01:59:24;;;;;;;6.35;1.90;;;3.00;99.90;;;;;;4973021;28;20097;-65
2023/01/17 02:01:52;;;;;;;9.55;3.00;;;3.00;99.90;;;;;;4973973;28;20521;-66
2023/01/17 02:04:20;;;;;;;5.63;2.25;;;3.10;99.90;;;;;;4970454;28;20055;-64
2023/01/17 02:06:51;;;;;;;7.70;2.03;;;3.10;99.90;;;;;;4972028;28;20050;-64
2023/01/17 02:09:18;;;;;;;5.00;1.70;;;3.10;99.90;;;;;;4971271;28;20062;-65
2023/01/17 02:11:49;;;;;;;6.05;2.05;;;3.10;99.90;;;;;;4955262;28;20050;-63
2023/01/17 02:14:17;;;;;;;4.55;1.95;;;3.10;99.90;;;;;;4955879;28;20077;-63
2023/01/17 02:17:02;;;;;;;4.88;1.88;;;3.10;99.90;;;;;;4955703;28;20050;-63
2023/01/17 02:20:20;;;;;;;7.93;1.90;;;3.10;99.90;;;;;;4955599;28;20065;-64
2023/01/17 02:23:22;;;;;;;10.07;1.70;;;3.20;99.90;;;;;;4956069;28;20054;-63
2023/01/17 02:26:30;;;;;;;7.00;2.03;;;3.20;99.90;;;;;;4936538;29;20062;-64
2023/01/17 02:29:21;;;;;;;5.17;1.50;;;3.20;99.90;;;;;;4953570;29;20102;-64
2023/01/17 02:31:54;;;;;;;12.10;1.90;;;3.20;99.90;;;;;;4953480;29;20412;-63
2023/01/17 02:34:28;;;;;;;15.55;2.28;;;3.20;99.90;;;;;;4936183;29;20407;-64
2023/01/17 02:37:01;;;;;;;6.03;1.90;;;3.20;99.90;;;;;;4954262;29;20418;-64
2023/01/17 02:39:33;;;;;;;7.65;2.00;;;3.20;99.90;;;;;;4953622;29;20051;-64
2023/01/17 02:42:04;;;;;;;7.32;2.20;;;3.20;99.90;;;;;;4953981;29;20054;-63
2023/01/17 02:44:40;;;;;;;11.93;3.88;;;3.20;99.90;;;;;;4935049;29;20055;-63
2023/01/17 02:47:22;;;;;;;8.20;3.30;;;3.20;99.90;;;;;;4953346;28;20083;-64
2023/01/17 02:49:48;;;;;;;6.50;1.88;;;3.20;99.90;;;;;;4935954;29;20054;-63
2023/01/17 02:52:40;;;;;;;7.47;1.70;;;3.20;99.90;;;;;;4936062;29;20058;-63
2023/01/17 02:55:17;;;;;;;6.18;1.80;;;3.20;99.90;;;;;;4953250;29;20051;-64
2023/01/17 02:58:13;;;;;;;5.40;1.60;;;3.20;99.90;;;;;;4936662;29;20495;-64
2023/01/17 03:00:50;;;;;;;6.18;1.55;;;3.20;99.90;;;;;;4947610;29;20495;-63
2023/01/17 03:03:27;;;;;;;9.98;2.10;;;3.20;99.90;;;;;;4953428;29;20059;-64
2023/01/17 03:05:59;;;;;;;6.28;2.60;;;3.00;99.90;;;;;;4951508;29;20075;-63
2023/01/17 03:08:28;;;;;;;4.93;2.33;;;2.90;99.90;;;;;;4952096;29;20103;-64
2023/01/17 03:10:55;;;;;;;5.55;1.85;;;2.80;99.90;;;;;;4951501;29;20059;-63
2023/01/17 03:13:22;;;;;;;8.02;2.20;;;2.80;99.90;;;;;;4953194;29;20052;-64
2023/01/17 03:15:49;;;;;;;5.20;1.67;;;2.80;99.90;;;;;;4953325;29;20051;-64
2023/01/17 03:18:17;;;;;;;6.63;1.70;;;2.80;99.90;;;;;;4953237;29;20059;-66
2023/01/17 03:20:45;;;;;;;4.53;1.65;;;2.80;99.90;;;;;;4933301;29;20051;-65
2023/01/17 03:23:12;;;;;;;6.53;1.98;;;2.80;99.90;;;;;;4935794;29;20487;-65
2023/01/17 03:25:39;;;;;;;11.73;2.00;;;2.80;99.90;;;;;;4970968;28;20063;-65
2023/01/17 03:28:06;;;;;;;7.18;1.80;;;2.90;99.90;;;;;;4954905;28;20050;-65
2023/01/17 03:30:33;;;;;;;4.15;1.58;;;2.80;99.90;;;;;;4956014;28;20085;-65
2023/01/17 03:33:00;;;;;;;8.18;1.83;;;2.80;99.90;;;;;;4955655;28;20046;-65
2023/01/17 03:35:28;;;;;;;5.18;2.00;;;2.80;99.90;;;;;;4975273;28;20051;-66
2023/01/17 03:37:56;;;;;;;4.00;2.13;;;2.80;99.90;;;;;;4973718;28;20046;-66
2023/01/17 03:40:23;;;;;;;7.45;2.00;;;2.80;99.90;;;;;;4973347;28;20049;-66
2023/01/17 03:42:50;;;;;;;4.95;1.77;;;2.80;99.90;;;;;;4956502;28;20496;-65
2023/01/17 03:45:17;;;;;;;5.35;1.77;;;2.70;99.90;;;;;;4953917;28;20059;-65
2023/01/17 03:47:43;;;;;;;9.95;1.77;;;2.70;99.90;;;;;;4955624;28;20499;-66
2023/01/17 03:50:12;;;;;;;6.57;1.80;;;2.70;99.90;;;;;;4972226;28;20098;-66
2023/01/17 03:52:39;;;;;;;3.30;1.50;;;2.60;99.90;;;;;;4972191;28;20078;-66
2023/01/17 03:55:09;;;;;;;4.22;1.73;;;2.70;99.90;;;;;;4972258;28;20047;-66
2023/01/17 03:57:36;;;;;;;11.75;2.78;;;2.70;99.90;;;;;;4955705;28;20047;-66
2023/01/17 04:00:03;;;;;;;8.27;2.35;;;2.60;99.90;;;;;;4976055;28;20053;-65
2023/01/17 04:02:30;;;;;;;8.55;2.08;;;2.60;99.90;;;;;;4958418;28;20047;-65
2023/01/17 04:04:57;;;;;;;4.45;1.92;;;2.50;99.90;;;;;;4959136;28;20158;-65
2023/01/17 04:07:24;;;;;;;6.35;2.00;;;2.50;99.90;;;;;;4976570;28;20424;-65
2023/01/17 04:09:51;;;;;;;11.40;1.92;;;2.40;99.90;;;;;;4975793;28;20138;-65
2023/01/17 04:12:19;;;;;;;5.38;1.55;;;2.40;99.90;;;;;;4959109;28;20046;-65
2023/01/17 04:14:46;;;;;;;4.13;1.83;;;2.30;99.90;;;;;;4974110;28;20054;-66
2023/01/17 04:17:14;;;;;;;4.20;1.65;;;2.20;99.90;;;;;;4975349;28;20047;-66
2023/01/17 04:19:41;;;;;;;7.00;1.77;;;2.20;99.90;;;;;;4975964;28;20047;-65
2023/01/17 04:22:07;;;;;;;4.28;1.80;;;2.20;99.90;;;;;;4958404;28;20050;-64
2023/01/17 04:24:35;;;;;;;4.95;1.73;;;2.10;99.90;;;;;;4957770;28;20069;-64
2023/01/17 04:27:03;;;;;;;5.25;1.90;;;2.10;99.90;;;;;;4975037;28;20049;-64
2023/01/17 04:29:32;;;;;;;6.28;1.83;;;2.00;99.90;;;;;;4958095;28;20051;-64
2023/01/17 04:31:58;;;;;;;5.15;1.63;;;2.00;99.90;;;;;;4957716;28;20069;-63
2023/01/17 04:34:25;;;;;;;5.28;1.50;;;2.00;99.90;;;;;;4972530;28;20046;-63
2023/01/17 04:36:52;;;;;;;8.18;1.70;;;1.90;99.90;;;;;;4974714;28;20046;-64
2023/01/17 04:39:19;;;;;;;8.52;2.50;;;1.90;99.90;;;;;;4956935;28;20039;-64
2023/01/17 04:41:46;;;;;;;7.82;1.90;;;1.90;99.90;;;;;;4956746;28;20053;-63
2023/01/17 04:44:13;;;;;;;2.85;1.52;;;1.80;99.90;;;;;;4957025;28;20607;-62
2023/01/17 04:46:41;;;;;;;4.88;1.52;;;1.90;99.90;;;;;;4956744;28;20050;-63
2023/01/17 04:49:08;;;;;;;17.15;2.28;;;1.80;99.90;;;;;;4974016;28;20038;-64
2023/01/17 04:51:36;;;;;;;13.98;1.90;;;1.80;99.90;;;;;;4949750;28;20069;-63
2023/01/17 04:54:03;;;;;;;6.78;1.80;;;1.80;99.90;;;;;;4974110;28;20058;-62
2023/01/17 04:56:30;;;;;;;7.70;2.33;;;1.80;99.90;;;;;;4975144;28;20406;-63
2023/01/17 04:58:57;;;;;;;5.38;1.98;;;1.80;99.90;;;;;;4972188;28;20043;-64
2023/01/17 05:01:24;;;;;;;7.22;1.95;;;1.70;99.90;;;;;;4973136;28;20082;-63
2023/01/17 05:03:52;;;;;;;6.53;1.70;;;1.70;99.90;;;;;;4956212;28;20047;-64
2023/01/17 05:06:19;;;;;;;3.53;1.60;;;1.70;99.90;;;;;;4958552;28;20055;-64
2023/01/17 05:08:46;;;;;;;7.15;2.25;;;1.60;99.90;;;;;;4972924;28;20050;-64
2023/01/17 05:11:13;;;;;;;6.70;2.20;;;1.60;99.90;;;;;;4972539;28;20042;-64
2023/01/17 05:13:40;;;;;;;6.75;1.70;;;1.50;99.90;;;;;;4954074;28;20080;-64
2023/01/17 05:16:07;;;;;;;7.68;1.80;;;1.50;99.90;;;;;;4972819;28;20510;-62
2023/01/17 05:18:34;;;;;;;6.00;1.63;;;1.40;99.90;;;;;;4970725;28;20061;-63
2023/01/17 05:21:03;;;;;;;9.77;1.30;;;1.40;99.90;;;;;;4955574;28;20050;-63
2023/01/17 05:23:31;;;;;;;2.45;1.40;;;1.30;99.90;;;;;;4956181;28;20098;-64
2023/01/17 05:25:58;;;;;;;4.65;1.50;;;1.30;99.90;;;;;;4971008;28;20138;-64
2023/01/17 05:28:25;;;;;;;4.50;1.83;;;1.30;99.90;;;;;;4955272;28;20054;-62
2023/01/17 05:30:52;;;;;;;5.28;2.55;;;1.20;99.90;;;;;;4953150;28;20046;-63
2023/01/17 05:33:19;;;;;;;5.97;1.75;;;1.20;99.90;;;;;;4954114;28;20563;-63
2023/01/17 05:35:46;;;;;;;3.63;1.60;;;1.10;99.90;;;;;;4971965;28;20047;-63
2023/01/17 05:38:14;;;;;;;4.07;1.50;;;1.10;99.90;;;;;;4971851;28;20058;-63
2023/01/17 05:40:41;;;;;;;5.00;1.38;;;1.10;99.90;;;;;;4954768;28;20065;-63
2023/01/17 05:43:09;;;;;;;7.38;1.80;;;1.10;99.90;;;;;;4971448;28;20053;-64
2023/01/17 05:45:36;;;;;;;5.53;1.38;;;1.10;99.90;;;;;;4954203;28;20066;-64
2023/01/17 05:48:05;;;;;;;5.95;1.70;;;1.00;99.90;;;;;;4970224;28;20063;-63
2023/01/17 05:50:33;;;;;;;5.38;1.70;;;1.00;99.90;;;;;;4970910;28;20043;-64
2023/01/17 05:53:02;;;;;;;4.10;1.50;;;1.10;99.90;;;;;;4971873;28;20046;-64
2023/01/17 05:55:31;;;;;;;7.32;2.20;;;1.20;99.90;;;;;;4971177;28;20058;-63
2023/01/17 05:57:59;;;;;;;5.72;2.17;;;1.00;99.90;;;;;;4953184;28;20051;-64
2023/01/17 06:00:26;;;;;;;7.45;1.60;;;1.00;99.90;;;;;;4971515;28;20058;-64
2023/01/17 06:02:54;;;;;;;3.00;1.60;;;1.00;99.90;;;;;;4953907;28;20050;-64
2023/01/17 06:05:21;;;;;;;4.15;1.80;;;1.00;99.90;;;;;;4954932;28;20465;-65
2023/01/17 06:07:48;;;;;;;4.90;1.80;;;1.00;99.90;;;;;;4955695;28;20050;-64
2023/01/17 06:10:17;;;;;;;3.67;1.80;;;0.90;99.90;;;;;;4970399;28;20058;-64
2023/01/17 06:12:46;;;;;;;6.25;1.70;;;0.90;99.90;;;;;;4952401;28;20458;-65
2023/01/17 06:15:14;;;;;;;5.07;1.60;;;0.90;99.90;;;;;;4972505;28;20062;-65
2023/01/17 06:17:41;;;;;;;7.22;2.17;;;0.90;99.90;;;;;;4972372;28;20050;-64
2023/01/17 06:20:10;;;;;;;5.55;1.67;;;0.90;99.90;;;;;;4972646;28;20051;-64
2023/01/17 06:22:37;;;;;;;4.10;1.70;;;0.90;99.90;;;;;;4951950;28;20067;-65
2023/01/17 06:25:05;;;;;;;4.65;1.60;;;0.90;99.90;;;;;;4955852;28;20130;-64
2023/01/17 06:27:32;;;;;;;7.18;1.67;;;0.90;99.90;;;;;;4968916;28;20061;-64
2023/01/17 06:30:01;;;;;;;3.70;1.65;;;0.90;99.90;;;;;;4971128;28;20038;-65
2023/01/17 06:32:27;;;;;;;6.18;1.88;;;0.80;99.90;;;;;;4953523;28;20046;-65
2023/01/17 06:34:54;;;;;;;12.13;2.38;;;0.80;99.90;;;;;;4953248;28;20542;-64
2023/01/17 06:37:21;;;;;;;5.05;1.60;;;0.70;99.90;;;;;;4953058;28;20059;-64
2023/01/17 06:39:48;;;;;;;5.57;1.88;;;0.70;99.90;;;;;;4972807;28;20047;-63
2023/01/17 06:42:15;;;;;;;2.20;1.45;;;0.70;99.90;;;;;;4970943;28;20462;-63
2023/01/17 06:44:42;;;;;;;8.32;1.95;;;0.60;99.90;;;;;;4972143;28;20047;-63
2023/01/17 06:47:10;;;;;;;8.23;2.13;;;0.60;99.90;;;;;;4951226;28;20380;-64
2023/01/17 06:49:37;;;;;;;5.40;2.25;;;0.50;99.90;;;;;;4953260;28;20043;-63
2023/01/17 06:52:05;;;;;;;3.95;2.10;;;0.50;99.90;;;;;;4968724;28;20065;-62
2023/01/17 06:54:31;;;;;;;5.88;2.25;;;0.40;99.90;;;;;;4951724;28;20073;-63
2023/01/17 06:56:58;;;;;;;3.55;1.70;;;0.40;99.90;;;;;;4952200;28;20150;-63
2023/01/17 06:59:25;;;;;;;7.50;1.95;;;0.40;99.90;;;;;;4971003;28;20047;-63
2023/01/17 07:01:52;;;;;;;7.72;1.92;;;0.30;99.90;;;;;;4973016;28;20885;-63
2023/01/17 07:04:20;;;;;;;3.50;1.70;;;0.30;99.90;;;;;;4952906;28;20090;-63
2023/01/17 07:06:47;;;;;;;3.50;1.20;;;0.20;99.90;;;;;;4970814;28;20046;-63
2023/01/17 07:09:14;;;;;;;9.43;1.50;;;0.10;99.90;;;;;;4957948;28;20101;-63
2023/01/17 07:11:41;;;;;;;6.20;1.40;;;0.10;99.90;;;;;;4952782;28;20057;-63
2023/01/17 07:14:13;;;;;;;4.90;1.30;;;0.10;99.90;;;;;;4953978;28;20058;-63
2023/01/17 07:16:42;;;;;;;6.10;1.55;;;0.00;99.90;;;;;;4950836;28;20129;-63
2023/01/17 07:19:09;;;;;;;3.17;1.60;;;0.00;99.90;;;;;;4971131;28;20438;-62
2023/01/17 07:21:37;;;;;;;2.97;1.70;;;0.20;99.90;;;;;;4968595;28;20063;-64
2023/01/17 07:24:05;;;;;;;4.13;1.90;;;0.00;99.90;;;;;;4971836;28;20435;-62
2023/01/17 07:26:32;;;;;;;7.30;1.90;;;0.00;99.90;;;;;;4970943;28;20503;-63
2023/01/17 07:28:59;;;;;;;3.10;1.60;;;0.10;99.90;;;;;;4970205;28;20047;-63
2023/01/17 07:31:26;;;;;;;8.02;2.00;;;0.00;99.90;;;;;;4954554;28;20130;-65
2023/01/17 07:33:53;;;;;;;2.90;1.60;;;0.10;99.90;;;;;;4956564;28;20047;-65
2023/01/17 07:36:20;;;;;;;3.53;1.30;;;0.30;99.90;;;;;;4957975;28;20372;-64
2023/01/17 07:38:48;;;;;;;4.07;1.40;;;0.20;99.90;;;;;;4958020;28;20061;-65
2023/01/17 07:41:15;;;;;;;5.68;1.40;;;0.20;99.90;;;;;;4973590;28;20103;-64
2023/01/17 07:43:42;;;;;;;6.38;1.63;;;0.20;99.90;;;;;;4958377;28;20518;-64
2023/01/17 07:46:08;;;;;;;4.03;1.38;;;0.20;99.90;;;;;;4958810;28;20415;-64
2023/01/17 07:48:35;;;;;;;6.85;2.35;;;0.20;99.90;;;;;;4957906;28;20057;-64
2023/01/17 07:51:02;;;;;;;3.95;1.60;;;0.20;99.90;;;;;;4955946;28;20439;-63
2023/01/17 07:53:31;;;;;;;5.40;1.73;;;0.30;99.90;;;;;;4974747;28;20094;-63
2023/01/17 07:56:03;;;;;;;4.93;2.17;;;0.30;99.90;;;;;;4921886;28;20055;-63
2023/01/17 07:58:30;;;;;;;3.28;1.48;;;0.20;99.90;;;;;;4965589;28;20049;-63
2023/01/17 08:01:01;;;;;;;3.95;1.88;;;0.20;99.90;;;;;;4957969;28;20051;-63
2023/01/17 08:03:31;;;;;;;4.75;1.85;;;0.40;99.90;;;;;;4957580;28;20134;-64
2023/01/17 08:05:58;;;;;;;4.43;1.30;;;0.30;99.90;;;;;;4955587;28;20051;-63
2023/01/17 08:08:40;;;;;;;5.45;1.83;;;0.30;99.90;;;;;;4957274;28;20550;-63
2023/01/17 08:11:09;;;;;;;3.70;1.30;;;0.30;99.90;;;;;;4957597;28;20447;-63
2023/01/17 08:13:36;;;;;;;5.72;2.00;;;0.40;99.90;;;;;;4957425;28;20047;-63
2023/01/17 08:16:02;;;;;;;7.60;2.00;;;0.40;99.90;;;;;;4973287;28;20491;-62
2023/01/17 08:18:29;;;;;;;5.03;1.70;;;0.50;99.90;;;;;;4974638;28;20047;-63
2023/01/17 08:20:56;;;;;;;5.13;1.60;;;0.60;99.90;;;;;;4974230;28;20407;-63
2023/01/17 08:23:24;;;;;;;8.40;2.25;;;1.20;99.90;;;;;;4973887;28;20051;-63
2023/01/17 08:25:51;;;;;;;3.92;1.63;;;1.60;99.90;;;;;;4956869;28;20134;-63
2023/01/17 08:28:19;;;;;;;5.72;1.90;;;2.50;99.90;;;;;;4975234;28;20051;-63
2023/01/17 08:30:46;;;;;;;5.25;2.40;;;3.40;99.90;;;;;;4955077;28;20081;-63
2023/01/17 08:33:13;;;;;;;4.90;2.55;;;4.20;99.90;;;;;;4975417;28;20133;-63
2023/01/17 08:35:40;;;;;;;5.57;2.00;;;5.10;99.90;;;;;;4974674;28;20042;-64
2023/01/17 08:38:07;;;;;;;5.72;1.42;;;5.90;99.90;;;;;;4957135;28;20083;-63
2023/01/17 08:40:34;;;;;;;4.35;1.33;;;6.50;99.90;;;;;;4955762;28;20407;-64
2023/01/17 08:43:02;;;;;;;7.05;1.70;;;7.00;99.90;;;;;;4957203;28;20043;-64
2023/01/17 08:45:30;;;;;;;4.50;1.30;;;7.70;99.90;;;;;;4955817;28;20543;-64
2023/01/17 08:47:58;;;;;;;7.28;1.58;;;7.80;99.90;;;;;;4957873;28;20050;-64
2023/01/17 08:50:25;;;;;;;3.75;1.38;;;8.30;99.90;;;;;;4974869;28;20231;-63
2023/01/17 08:52:58;;;;;;;2.83;1.30;;;8.70;99.90;;;;;;4973438;28;20134;-64
2023/01/17 08:55:25;;;;;;;5.70;1.40;;;8.40;99.90;;;;;;4974777;28;20426;-64
2023/01/17 08:57:52;;;;;;;2.47;1.25;;;8.90;99.90;;;;;;4957646;28;20137;-64
2023/01/17 09:00:20;;;;;;;2.75;1.30;;;9.10;99.90;;;;;;4957217;28;20519;-64
2023/01/17 09:02:50;;;;;;;5.00;1.45;;;10.00;99.90;;;;;;4957109;28;20062;-64
2023/01/17 09:05:17;;;;;;;3.15;1.13;;;10.00;99.90;;;;;;4972675;28;20050;-63
2023/01/17 09:07:44;;;;;;;2.65;1.20;;;10.50;99.90;;;;;;4956901;28;20055;-63
2023/01/17 09:10:12;;;;;;;6.68;2.38;;;10.90;99.90;;;;;;4974765;28;20074;-63
2023/01/17 09:12:39;;;;;;;4.53;1.98;;;11.30;99.90;;;;;;4973489;28;20182;-64
2023/01/17 09:15:07;;;;;;;5.72;1.42;;;11.10;99.90;;;;;;4974563;28;20051;-63
2023/01/17 09:17:33;;;;;;;7.00;1.80;;;11.40;99.90;;;;;;4956338;28;20193;-63
2023/01/17 09:20:02;;;;;;;6.03;1.67;;;11.60;99.90;;;;;;4973970;28;20065;-64
2023/01/17 09:22:29;;;;;;;5.93;1.40;;;11.90;99.90;;;;;;4953584;28;20062;-64
2023/01/17 09:24:56;;;;;;;4.03;1.50;;;11.40;99.90;;;;;;4956005;28;20070;-64
2023/01/17 09:27:23;;;;;;;5.32;1.45;;;12.00;99.90;;;;;;4970161;28;20043;-64
2023/01/17 09:29:50;;;;;;;2.88;1.25;;;11.90;99.10;;;;;;4972629;28;20497;-64
2023/01/17 09:32:17;;;;;;;4.93;1.30;;;12.40;99.90;;;;;;4956723;28;20043;-64
2023/01/17 09:34:44;;;;;;;8.00;1.58;;;12.30;99.90;;;;;;4971079;28;20046;-64
2023/01/17 09:37:12;;;;;;;2.90;1.30;;;12.40;99.90;;;;;;4973536;28;20047;-64
2023/01/17 09:39:39;;;;;;;5.03;1.40;;;11.80;96.40;;;;;;4972090;28;20058;-64
2023/01/17 09:42:20;;;;;;;2.83;1.10;;;11.30;97.00;;;;;;4956294;28;20057;-64
2023/01/17 09:44:50;;;;;;;4.63;1.30;;;9.80;99.90;;;;;;4973702;28;20073;-63
2023/01/17 09:47:28;;;;;;;3.22;1.20;;;8.20;99.90;;;;;;4955658;28;20058;-63
2023/01/17 09:49:59;;;;;;;3.63;1.35;;;7.50;99.90;;;;;;4956416;28;20126;-63
2023/01/17 09:52:30;;;;;;;3.83;1.55;;;7.20;99.90;;;;;;4956044;28;20053;-63
2023/01/17 09:54:57;;;;;;;;;;;8.00;99.90;;;;;;4972819;28;20054;-65
2023/01/17 09:57:41;;;;;;;2.33;0.98;;;8.70;99.90;;;;;;4972090;28;19922;-63
2023/01/17 10:00:20;;;;;;;2.20;0.90;;;9.50;99.90;;;;;;4973615;28;20057;-63
2023/01/17 10:03:00;;;;;;;2.25;0.93;;;10.30;99.90;;;;;;4954583;28;20074;-63
2023/01/17 10:05:38;;;;;;;3.47;1.23;;;9.70;99.90;;;;;;4972743;28;20528;-64
2023/01/17 10:08:16;;;;;;;1.60;0.90;;;9.10;99.90;;;;;;4972888;28;20050;-64
2023/01/17 10:10:52;;;;;;;2.15;1.10;;;8.90;99.90;;;;;;4973085;28;20042;-65
2023/01/17 10:13:34;;;;;;;1.80;1.00;;;9.30;99.90;;;;;;4969990;28;20563;-65
2023/01/17 10:16:20;;;;;;;4.18;1.52;;;10.30;99.90;;;;;;4955073;28;20054;-64
2023/01/17 10:19:10;;;;;;;1.90;1.00;;;10.40;99.90;;;;;;4956571;28;20047;-64
2023/01/17 10:21:51;;;;;;;3.58;1.40;;;10.80;99.90;;;;;;4971997;28;20049;-64
2023/01/17 10:24:45;;;;;;;2.83;1.20;;;10.50;99.80;;;;;;4955698;28;20066;-64
2023/01/17 10:27:20;;;;;;;2.00;0.90;;;10.70;99.90;;;;;;4953046;28;20062;-64
2023/01/17 10:29:49;;;;;;;3.10;0.85;;;11.00;99.70;;;;;;4972704;28;20085;-64
2023/01/17 10:32:16;;;;;;;2.78;1.20;;;11.30;99.00;;;;;;4971645;28;20051;-65
2023/01/17 10:34:47;;;;;;;3.13;1.00;;;10.10;99.90;;;;;;4955760;28;20058;-65
2023/01/17 10:37:20;;;;;;;2.33;0.90;;;9.80;99.90;;;;;;4970733;28;20392;-65
2023/01/17 10:39:51;;;;;;;2.20;1.00;;;8.80;99.90;;;;;;4955248;28;20054;-64
2023/01/17 10:42:22;;;;;;;2.28;0.90;;;8.10;99.90;;;;;;4972380;28;20047;-64
2023/01/17 10:44:57;;;;;;;2.92;1.15;;;8.50;99.90;;;;;;4971746;28;20062;-65
2023/01/17 10:47:26;;;;;;;3.25;1.00;;;9.80;99.90;;;;;;4954930;28;20089;-64
2023/01/17 10:49:57;;;;;;;1.75;1.00;;;10.50;99.90;;;;;;4955321;28;20050;-65
2023/01/17 10:52:32;;;;;;;1.60;0.90;;;11.40;99.90;;;;;;4972440;28;20126;-64
2023/01/17 10:55:17;;;;;;;2.53;0.85;;;12.20;98.90;;;;;;4973029;28;20047;-64
2023/01/17 10:57:45;;;;;;;4.85;1.00;;;12.70;99.40;;;;;;4954630;28;20105;-65
2023/01/17 11:00:34;;;;;;;2.90;1.05;;;12.70;98.00;;;;;;4972370;28;20054;-64
2023/01/17 11:03:02;;;;;;;3.63;1.10;;;13.20;99.90;;;;;;4960120;28;20050;-64
2023/01/17 11:05:31;;;;;;;2.83;1.10;;;13.60;99.90;;;;;;4952709;28;20167;-64
2023/01/17 11:08:00;;;;;;;2.88;0.90;;;13.40;98.60;;;;;;4970586;28;20141;-65
2023/01/17 11:10:38;;;;;;;2.78;1.23;;;14.10;96.70;;;;;;4954984;28;20046;-64
2023/01/17 11:13:19;;;;;;;3.53;0.82;;;13.90;98.70;;;;;;4970073;28;20062;-64
2023/01/17 11:15:49;;;;;;;3.08;0.95;;;13.70;95.20;;;;;;4954849;28;20051;-64
2023/01/17 11:18:18;;;;;;;;;;;14.80;95.20;;;;;;4954408;28;20066;-65
2023/01/17 11:20:46;;;;;;;4.10;1.02;;;15.10;94.30;;;;;;4972433;28;19921;-65
2023/01/17 11:23:17;;;;;;;3.85;1.10;;;15.80;95.00;;;;;;4969591;28;20046;-64
2023/01/17 11:25:56;;;;;;;1.98;0.98;;;16.70;87.40;;;;;;4969246;28;20077;-65
2023/01/17 11:28:29;;;;;;;2.40;0.85;;;16.90;86.90;;;;;;4972244;28;20514;-65
2023/01/17 11:30:58;;;;;;;3.42;1.00;;;16.50;90.60;;;;;;4955185;28;20070;-64
2023/01/17 11:33:45;;;;;;;3.88;1.50;;;16.20;87.30;;;;;;4970829;28;20047;-64
2023/01/17 11:36:20;;;;;;;4.95;1.25;;;16.10;84.40;;;;;;4954899;28;20522;-64
2023/01/17 11:39:02;;;;;;;3.08;1.15;;;16.40;88.20;;;;;;4954985;28;20047;-64
2023/01/17 11:41:35;;;;;;;5.03;1.13;;;16.50;87.70;;;;;;4954342;28;20105;-65
2023/01/17 11:44:03;;;;;;;2.95;1.10;;;16.60;88.70;;;;;;4972624;28;20051;-65
2023/01/17 11:46:31;;;;;;;3.80;1.52;;;16.60;88.30;;;;;;4970934;28;20078;-65
2023/01/17 11:48:59;;;;;;;3.67;1.42;;;16.50;87.90;;;;;;4972197;28;20046;-65
2023/01/17 11:51:29;;;;;;;3.17;1.33;;;16.40;87.60;;;;;;4969745;28;20060;-64
2023/01/17 11:54:16;;;;;;;4.25;1.05;;;16.50;87.10;;;;;;4970129;28;20078;-65
2023/01/17 11:56:45;;;;;;;3.00;1.00;;;15.70;83.90;;;;;;4970274;28;20047;-65
2023/01/17 11:59:28;;;;;;;5.78;1.80;;;15.80;86.30;;;;;;4971474;28;20463;-64
2023/01/17 12:02:23;;;;;;;4.38;1.15;;;15.70;85.30;;;;;;4971460;28;20457;-65
2023/01/17 12:04:59;;;;;;;4.97;1.33;;;16.40;85.10;;;;;;4955027;28;20050;-66
2023/01/17 12:07:36;;;;;;;4.50;1.20;;;15.70;84.70;;;;;;4954791;28;20057;-65
2023/01/17 12:10:12;;;;;;;6.35;1.20;;;16.30;86.50;;;;;;4955300;28;20078;-65
2023/01/17 12:15:53;;;;;;;4.43;1.25;;;15.20;84.90;;;;;;4972678;28;20518;-65
2023/01/17 12:18:35;;;;;;;4.00;1.15;;;15.30;82.60;;;;;;4972438;28;20392;-65
2023/01/17 12:21:16;;;;;;;3.15;1.17;;;14.80;85.60;;;;;;4954676;28;20054;-66
2023/01/17 12:24:04;;;;;;;3.05;1.17;;;15.40;84.10;;;;;;4974659;28;20047;-66
2023/01/17 12:26:36;;;;;;;3.15;1.30;;;15.70;80.80;;;;;;4969185;28;20059;-65
2023/01/17 12:29:30;;;;;;;3.25;1.40;;;14.60;86.40;;;;;;4972835;28;20406;-66
2023/01/17 12:32:08;;;;;;;4.03;1.48;;;14.60;86.60;;;;;;4956407;28;20110;-65
2023/01/17 12:34:39;;;;;;;2.85;1.30;;;15.10;85.80;;;;;;4956372;28;20507;-65
2023/01/17 12:37:17;;;;;;;4.53;1.42;;;15.30;82.00;;;;;;4956321;28;20137;-66
2023/01/17 12:39:54;;;;;;;4.47;1.50;;;15.40;80.10;;;;;;4974153;28;20055;-66
2023/01/17 12:42:26;;;;;;;3.58;1.35;;;15.90;82.10;;;;;;4973628;28;20042;-66
2023/01/17 12:44:58;;;;;;;3.08;1.35;;;16.00;81.40;;;;;;4956545;28;20479;-66
2023/01/17 12:47:25;;;;;;;4.35;1.10;;;15.60;78.50;;;;;;4973964;28;20070;-65
2023/01/17 12:50:02;;;;;;;3.08;1.20;;;15.30;79.80;;;;;;4958590;28;20057;-66
2023/01/17 12:52:42;;;;;;;5.43;1.25;;;15.40;78.00;;;;;;4973094;28;20049;-64
2023/01/17 12:55:16;;;;;;;4.18;1.10;;;14.50;79.70;;;;;;4955829;28;20059;-65
2023/01/17 12:57:47;;;;;;;3.30;1.20;;;14.70;80.00;;;;;;4956840;28;20058;-64
2023/01/17 13:00:21;;;;;;;3.13;1.35;;;14.60;81.70;;;;;;4973414;28;20043;-64
2023/01/17 13:02:53;;;;;;;7.10;1.73;;;14.50;81.50;;;;;;4956432;28;20051;-64
2023/01/17 13:05:24;;;;;;;2.38;1.10;;;15.10;79.30;;;;;;4956181;28;20047;-65
2023/01/17 13:08:01;;;;;;;4.32;1.30;;;14.90;79.30;;;;;;4957442;28;20051;-65
2023/01/17 13:10:34;;;;;;;5.55;1.10;;;14.40;80.60;;;;;;4955438;28;20054;-66
2023/01/17 13:13:11;;;;;;;6.45;1.33;;;13.60;80.70;;;;;;4972241;28;20136;-65
2023/01/17 13:15:41;;;;;;;3.38;1.30;;;12.40;83.60;;;;;;4973316;28;20059;-65
2023/01/17 13:18:14;;;;;;;5.65;1.35;;;11.70;88.90;;;;;;4960859;28;20559;-65
2023/01/17 13:21:06;;;;;;;3.72;1.38;;;11.40;91.50;;;;;;4955289;28;20131;-65
2023/01/17 13:23:41;;;;;;;5.80;1.33;;;12.30;84.50;;;;;;4955956;28;20135;-65
2023/01/17 13:26:18;;;;;;;2.05;0.80;;;11.90;85.80;;;;;;4961724;28;20055;-65
2023/01/17 13:28:51;;;;;;;3.38;1.40;;;11.50;84.90;;;;;;4973852;28;20046;-64
2023/01/17 13:31:34;;;;;;;6.47;1.30;;;10.90;85.80;;;;;;4971182;28;20055;-65
2023/01/17 13:34:17;;;;;;;5.47;1.33;;;10.20;89.40;;;;;;4972201;28;20093;-64
2023/01/17 13:37:03;;;;;;;2.38;0.90;;;9.70;90.80;;;;;;4972219;28;20058;-64
2023/01/17 13:39:58;;;;;;;4.20;1.17;;;9.00;92.00;;;;;;4973970;28;20420;-64
2023/01/17 13:42:41;;;;;;;3.25;1.10;;;7.80;94.20;;;;;;4968847;28;20055;-64
2023/01/17 13:45:17;;;;;;;3.33;1.00;;;7.30;96.30;;;;;;4973500;28;20113;-63
2023/01/17 13:47:45;;;;;;;2.40;1.13;;;7.00;97.40;;;;;;4960925;28;20047;-64
2023/01/17 13:50:45;;;;;;;3.00;1.20;;;6.90;98.30;;;;;;4954893;28;20150;-65
2023/01/17 13:53:56;;;;;;;4.77;1.20;;;6.90;99.10;;;;;;4966527;28;20483;-65
2023/01/17 13:56:36;;;;;;;2.60;1.00;;;6.80;99.70;;;;;;4956547;28;20283;-64
2023/01/17 13:59:30;;;;;;;3.92;1.08;;;7.70;99.10;;;;;;4956317;28;20106;-64
2023/01/17 14:01:57;;;;;;;4.07;1.30;;;8.70;96.00;;;;;;4955759;28;20051;-63
2023/01/17 14:05:10;;;;;;;3.25;1.20;;;10.00;93.80;;;;;;4973079;28;20144;-64
2023/01/17 14:07:43;;;;;;;2.75;1.25;;;10.70;92.90;;;;;;4949624;28;20058;-64
2023/01/17 14:10:32;;;;;;;3.17;1.10;;;11.00;89.80;;;;;;4951116;28;20488;-64
2023/01/17 14:12:59;;;;;;;4.00;1.40;;;10.80;90.10;;;;;;4972916;28;20411;-65
2023/01/17 14:15:28;;;;;;;2.80;1.00;;;10.80;91.30;;;;;;4971152;28;20061;-64
2023/01/17 14:17:58;;;;;;;5.22;1.23;;;10.80;90.30;;;;;;4954409;28;20558;-64
2023/01/17 14:20:50;;;;;;;3.88;1.10;;;10.40;90.60;;;;;;4973311;28;20125;-64
2023/01/17 14:23:55;;;;;;;2.28;0.98;;;10.90;91.30;;;;;;4973636;28;20046;-64
2023/01/17 14:26:29;;;;;;;3.45;1.20;;;10.60;90.20;;;;;;4955199;28;21305;-64
2023/01/17 14:28:59;;;;;;;1.73;1.15;;;11.20;89.80;;;;;;4954991;28;20411;-64
2023/01/17 14:31:27;;;;;;;4.68;0.90;;;11.00;90.20;;;;;;4969694;28;20074;-65
2023/01/17 14:33:54;;;;;;;2.30;1.00;;;10.20;91.40;;;;;;4959085;28;20050;-65
2023/01/17 14:36:30;;;;;;;3.40;1.00;;;9.70;91.60;;;;;;4958820;28;20108;-65
2023/01/17 14:38:57;;;;;;;3.90;1.02;;;8.90;92.80;;;;;;4975987;28;20057;-65
2023/01/17 14:41:28;;;;;;;2.00;0.98;;;7.70;95.70;;;;;;4958156;28;20063;-65
2023/01/17 14:43:55;;;;;;;5.25;1.27;;;7.00;98.00;;;;;;4953913;28;20063;-65